createdAt,value
2018-04-29T00:02:10.480Z,82.60
2018-04-29T00:04:37.973Z,84.40
2018-04-29T00:07:05.477Z,85.60
2018-04-29T00:09:32.970Z,84.50
2018-04-29T00:12:00.478Z,85.60
2018-04-29T00:14:27.974Z,86.30
2018-04-29T00:16:55.482Z,87.40
2018-04-29T00:19:22.972Z,88.90
2018-04-29T00:21:50.476Z,90.20
2018-04-29T00:24:17.973Z,90.10
2018-04-29T00:26:45.476Z,90.30
2018-04-29T00:29:12.969Z,89.90
2018-04-29T00:31:40.485Z,88.90
2018-04-29T00:34:07.985Z,88.70
2018-04-29T00:36:35.497Z,89.20
2018-04-29T00:39:02.996Z,89.30
2018-04-29T00:41:30.499Z,89.50
2018-04-29T00:43:57.992Z,90.20
2018-04-29T00:46:25.497Z,90.00
2018-04-29T00:48:52.981Z,90.10
2018-04-29T00:51:41.063Z,90.50
2018-04-29T00:54:08.557Z,90.70
2018-04-29T00:56:36.070Z,91.60
2018-04-29T00:59:03.630Z,91.70
2018-04-29T01:01:31.094Z,92.30
2018-04-29T01:03:58.588Z,92.20
2018-04-29T01:06:26.100Z,92.60
2018-04-29T01:08:53.591Z,92.40
2018-04-29T01:11:21.101Z,92.80
2018-04-29T01:13:48.592Z,92.50
2018-04-29T01:16:16.097Z,92.60
2018-04-29T01:18:43.594Z,92.50
2018-04-29T01:21:11.100Z,93.30
2018-04-29T01:23:38.585Z,93.40
2018-04-29T01:26:06.085Z,93.10
2018-04-29T01:28:34.365Z,92.30
2018-04-29T01:31:01.869Z,91.90
2018-04-29T01:33:29.348Z,91.00
2018-04-29T01:35:56.862Z,88.90
2018-04-29T01:38:24.360Z,88.50
2018-04-29T01:40:51.873Z,86.80
2018-04-29T01:43:19.373Z,85.50
2018-04-29T01:45:46.864Z,84.70
2018-04-29T01:48:14.373Z,84.80
2018-04-29T01:50:41.858Z,85.40
2018-04-29T01:53:09.353Z,84.50
2018-04-29T01:55:36.850Z,84.50
2018-04-29T01:58:04.348Z,85.70
2018-04-29T02:00:31.843Z,86.50
2018-04-29T02:02:59.350Z,88.10
2018-04-29T02:05:26.838Z,90.00
2018-04-29T02:07:54.349Z,89.70
2018-04-29T02:10:21.835Z,89.20
2018-04-29T02:12:49.343Z,90.00
2018-04-29T02:15:16.828Z,90.60
2018-04-29T02:17:44.341Z,90.40
2018-04-29T02:20:11.834Z,90.40
2018-04-29T02:22:39.341Z,90.30
2018-04-29T02:25:06.834Z,90.20
2018-04-29T02:27:34.341Z,90.80
2018-04-29T02:30:01.830Z,91.10
2018-04-29T02:32:29.337Z,91.50
2018-04-29T02:34:56.841Z,91.00
2018-04-29T02:37:24.352Z,90.50
2018-04-29T02:39:51.850Z,90.10
2018-04-29T02:42:19.354Z,89.20
2018-04-29T02:44:46.855Z,89.10
2018-04-29T02:47:14.355Z,89.20
2018-04-29T02:49:41.841Z,88.90
2018-04-29T02:52:09.377Z,88.50
2018-04-29T02:54:36.866Z,87.90
2018-04-29T02:57:04.353Z,87.70
2018-04-29T02:59:31.870Z,87.60
2018-04-29T03:01:59.367Z,88.20
2018-04-29T03:04:26.869Z,88.70
2018-04-29T03:06:54.356Z,88.90
2018-04-29T03:09:21.869Z,89.10
2018-04-29T03:11:49.368Z,89.90
2018-04-29T03:14:16.869Z,90.50
2018-04-29T03:16:44.349Z,90.30
2018-04-29T03:19:11.855Z,90.30
2018-04-29T03:21:39.342Z,90.40
2018-04-29T03:24:06.837Z,91.00
2018-04-29T03:26:34.327Z,91.00
2018-04-29T03:29:01.825Z,91.20
2018-04-29T03:31:29.312Z,91.10
2018-04-29T03:33:56.814Z,91.00
2018-04-29T03:36:24.302Z,91.10
2018-04-29T03:38:51.798Z,91.40
2018-04-29T03:41:19.289Z,91.30
2018-04-29T03:43:46.793Z,91.30
2018-04-29T03:46:14.273Z,91.30
2018-04-29T03:48:41.772Z,91.10
2018-04-29T03:51:09.257Z,91.30
2018-04-29T03:53:36.751Z,91.50
2018-04-29T03:56:04.282Z,91.60
2018-04-29T03:58:43.326Z,91.60
2018-04-29T04:01:22.652Z,91.70
2018-04-29T04:04:05.902Z,91.60
2018-04-29T04:06:33.377Z,91.70
2018-04-29T04:09:00.876Z,92.00
2018-04-29T04:11:28.365Z,92.00
2018-04-29T04:13:55.875Z,91.90
2018-04-29T04:16:23.365Z,91.80
2018-04-29T04:18:50.867Z,91.80
2018-04-29T04:21:18.344Z,91.90
2018-04-29T04:23:45.908Z,91.90
2018-04-29T04:26:13.337Z,91.90
2018-04-29T04:28:40.846Z,92.00
2018-04-29T04:31:08.333Z,92.40
2018-04-29T04:33:35.838Z,92.60
2018-04-29T04:36:03.325Z,92.60
2018-04-29T04:38:30.827Z,92.60
2018-04-29T04:40:59.077Z,93.20
2018-04-29T04:43:26.556Z,93.10
2018-04-29T04:45:54.058Z,93.10
2018-04-29T04:48:21.547Z,92.90
2018-04-29T04:50:49.073Z,92.80
2018-04-29T04:53:16.570Z,92.80
2018-04-29T04:55:44.066Z,92.70
2018-04-29T04:58:11.595Z,92.80
2018-04-29T05:00:39.056Z,92.90
2018-04-29T05:03:06.823Z,93.00
2018-04-29T05:05:34.333Z,92.80
2018-04-29T05:08:01.845Z,92.90
2018-04-29T05:10:29.353Z,93.70
2018-04-29T05:12:56.846Z,93.90
2018-04-29T05:15:24.345Z,94.70
2018-04-29T05:17:51.833Z,94.30
2018-04-29T05:20:19.341Z,94.00
2018-04-29T05:22:46.830Z,94.20
2018-04-29T05:25:14.331Z,94.00
2018-04-29T05:27:41.817Z,94.30
2018-04-29T05:30:09.317Z,94.20
2018-04-29T05:32:36.803Z,94.00
2018-04-29T05:35:04.307Z,93.70
2018-04-29T05:37:32.558Z,93.80
2018-04-29T05:40:00.067Z,93.70
2018-04-29T05:42:27.555Z,93.50
2018-04-29T05:44:55.057Z,93.20
2018-04-29T05:47:22.546Z,92.90
2018-04-29T05:49:50.062Z,93.00
2018-04-29T05:52:17.557Z,93.30
2018-04-29T05:54:45.061Z,92.80
2018-04-29T05:57:12.549Z,92.50
2018-04-29T05:59:40.061Z,92.20
2018-04-29T06:02:07.544Z,92.30
2018-04-29T06:04:35.053Z,92.10
2018-04-29T06:07:02.550Z,91.80
2018-04-29T06:09:30.049Z,91.70
2018-04-29T06:11:57.561Z,91.30
2018-04-29T06:14:25.890Z,90.60
2018-04-29T06:16:53.385Z,89.80
2018-04-29T06:19:21.639Z,86.90
2018-04-29T06:21:49.157Z,86.90
2018-04-29T06:24:16.649Z,86.00
2018-04-29T06:26:44.157Z,84.00
2018-04-29T06:29:11.682Z,84.90
2018-04-29T06:31:39.197Z,81.70
2018-04-29T06:34:06.685Z,82.40
2018-04-29T06:36:34.185Z,82.20
2018-04-29T06:39:01.681Z,82.10
2018-04-29T06:41:29.193Z,81.50
2018-04-29T06:43:56.685Z,79.50
2018-04-29T06:46:24.194Z,78.70
2018-04-29T06:48:51.694Z,77.50
2018-04-29T06:51:19.198Z,76.50
2018-04-29T06:53:46.695Z,76.40
2018-04-29T06:56:14.196Z,77.10
2018-04-29T06:58:41.685Z,77.30
2018-04-29T07:01:09.211Z,76.30
2018-04-29T07:03:36.709Z,77.10
2018-04-29T07:06:04.258Z,77.30
2018-04-29T07:08:32.516Z,78.40
2018-04-29T07:11:00.020Z,78.30
2018-04-29T07:13:27.514Z,75.10
2018-04-29T07:15:55.022Z,71.30
2018-04-29T07:18:22.513Z,71.00
2018-04-29T07:20:50.018Z,70.40
2018-04-29T07:23:17.505Z,67.00
2018-04-29T07:25:45.030Z,66.10
2018-04-29T07:28:12.515Z,65.00
2018-04-29T07:30:40.019Z,62.70
2018-04-29T07:33:07.513Z,62.20
2018-04-29T07:35:35.029Z,60.90
2018-04-29T07:38:02.533Z,62.80
2018-04-29T07:40:30.021Z,61.90
2018-04-29T07:42:57.558Z,60.00
2018-04-29T07:45:25.054Z,58.60
2018-04-29T07:47:52.563Z,57.40
2018-04-29T07:50:20.056Z,57.30
2018-04-29T07:52:47.559Z,56.30
2018-04-29T07:55:15.088Z,56.30
2018-04-29T07:57:42.607Z,56.40
2018-04-29T08:00:10.130Z,56.80
2018-04-29T08:02:37.633Z,56.70
2018-04-29T08:05:05.146Z,58.40
2018-04-29T08:07:32.680Z,57.40
2018-04-29T08:10:00.159Z,58.10
2018-04-29T08:12:27.675Z,56.50
2018-04-29T08:14:55.161Z,55.10
2018-04-29T08:17:22.749Z,54.80
2018-04-29T08:19:50.181Z,55.40
2018-04-29T08:22:17.723Z,59.20
2018-04-29T08:24:45.232Z,58.40
2018-04-29T08:27:12.739Z,56.30
2018-04-29T08:29:40.226Z,56.40
2018-04-29T08:32:08.501Z,56.40
2018-04-29T08:34:36.017Z,56.40
2018-04-29T08:37:03.550Z,56.00
2018-04-29T08:39:31.043Z,55.10
2018-04-29T08:41:58.616Z,53.80
2018-04-29T08:44:26.061Z,54.50
2018-04-29T08:46:54.330Z,54.80
2018-04-29T08:49:21.847Z,54.80
2018-04-29T08:51:49.336Z,54.60
2018-04-29T08:54:16.825Z,54.60
2018-04-29T08:56:45.110Z,54.50
2018-04-29T08:59:13.363Z,55.10
2018-04-29T09:01:40.891Z,55.00
2018-04-29T09:04:08.412Z,54.20
2018-04-29T09:06:35.928Z,53.80
2018-04-29T09:09:03.420Z,53.80
2018-04-29T09:11:30.935Z,54.90
2018-04-29T09:13:58.433Z,53.10
2018-04-29T09:16:25.924Z,53.50
2018-04-29T09:18:53.450Z,53.90
2018-04-29T09:21:20.938Z,53.80
2018-04-29T09:23:48.447Z,52.20
2018-04-29T09:26:15.973Z,51.20
2018-04-29T09:28:45.245Z,52.10
2018-04-29T09:31:12.769Z,53.20
2018-04-29T09:33:40.270Z,51.50
2018-04-29T09:36:07.805Z,51.60
2018-04-29T09:38:35.324Z,51.90
2018-04-29T09:41:02.808Z,49.80
2018-04-29T09:43:30.441Z,51.20
2018-04-29T09:45:57.909Z,51.40
2018-04-29T09:48:25.445Z,49.40
2018-04-29T09:50:52.966Z,49.20
2018-04-29T09:53:20.464Z,52.60
2018-04-29T09:55:48.003Z,49.90
2018-04-29T09:58:15.513Z,48.70
2018-04-29T10:00:48.580Z,49.40
2018-04-29T10:03:16.086Z,50.50
2018-04-29T10:05:43.609Z,50.30
2018-04-29T10:08:11.141Z,48.70
2018-04-29T10:10:38.634Z,48.80
2018-04-29T10:13:06.181Z,48.30
2018-04-29T10:15:33.717Z,50.00
2018-04-29T10:18:01.263Z,50.80
2018-04-29T10:20:28.745Z,48.10
2018-04-29T10:22:56.343Z,47.70
2018-04-29T10:25:23.908Z,47.20
2018-04-29T10:27:51.477Z,47.80
2018-04-29T10:30:18.961Z,48.00
2018-04-29T10:32:46.500Z,47.00
2018-04-29T10:35:13.981Z,48.40
2018-04-29T10:37:41.485Z,47.60
2018-04-29T10:40:09.031Z,48.60
2018-04-29T10:51:36.957Z,48.90
2018-04-29T10:54:04.478Z,46.80
2018-04-29T10:56:32.048Z,45.70
2018-04-29T10:58:59.520Z,46.10
2018-04-29T11:01:27.010Z,47.00
2018-04-29T11:03:54.541Z,46.50
2018-04-29T11:06:22.041Z,44.90
2018-04-29T11:08:49.593Z,46.10
2018-04-29T11:11:17.109Z,45.20
2018-04-29T11:13:44.646Z,45.70
2018-04-29T11:16:12.158Z,46.10
2018-04-29T11:18:39.722Z,45.90
2018-04-29T11:21:07.221Z,47.30
2018-04-29T11:23:34.747Z,45.50
2018-04-29T11:26:02.251Z,46.40
2018-04-29T11:28:29.780Z,43.10
2018-04-29T11:30:57.286Z,44.40
2018-04-29T11:33:24.821Z,42.50
2018-04-29T11:35:52.331Z,43.00
2018-04-29T11:38:19.837Z,42.60
2018-04-29T11:40:47.328Z,42.40
2018-04-29T11:43:14.841Z,42.60
2018-04-29T11:45:42.350Z,42.90
2018-04-29T11:48:09.858Z,42.60
2018-04-29T11:50:37.350Z,43.40
2018-04-29T11:53:04.874Z,44.00
2018-04-29T11:55:32.404Z,43.70
2018-04-29T11:57:59.957Z,42.60
2018-04-29T12:00:27.479Z,41.80
2018-04-29T12:02:54.982Z,40.80
2018-04-29T12:05:22.507Z,42.10
2018-04-29T12:07:50.006Z,41.90
2018-04-29T12:10:17.525Z,42.10
2018-04-29T12:12:45.026Z,43.30
2018-04-29T12:15:12.553Z,42.40
2018-04-29T12:17:40.082Z,41.50
2018-04-29T12:20:07.591Z,39.80
2018-04-29T12:22:35.155Z,39.50
2018-04-29T12:25:02.721Z,40.40
2018-04-29T12:27:30.269Z,40.30
2018-04-29T12:29:57.781Z,40.20
2018-04-29T12:32:25.282Z,40.50
2018-04-29T12:34:52.841Z,40.70
2018-04-29T12:37:20.362Z,39.00
2018-04-29T12:39:47.926Z,39.60
2018-04-29T12:42:15.409Z,39.30
2018-04-29T12:44:42.919Z,38.20
2018-04-29T12:47:10.414Z,38.70
2018-04-29T12:49:37.923Z,38.80
2018-04-29T12:52:05.708Z,38.20
2018-04-29T12:54:33.205Z,38.80
2018-04-29T12:57:00.719Z,37.60
2018-04-29T12:59:28.237Z,37.50
2018-04-29T13:01:55.821Z,37.20
2018-04-29T13:04:23.348Z,38.30
2018-04-29T13:06:50.829Z,39.70
2018-04-29T13:09:18.365Z,37.40
2018-04-29T13:11:45.917Z,36.70
2018-04-29T13:14:13.445Z,36.50
2018-04-29T13:16:40.961Z,37.40
2018-04-29T13:19:08.453Z,36.40
2018-04-29T13:21:35.981Z,37.30
2018-04-29T13:24:03.493Z,37.10
2018-04-29T13:26:31.044Z,36.00
2018-04-29T13:28:59.333Z,34.40
2018-04-29T13:31:26.837Z,34.30
2018-04-29T13:33:54.372Z,34.20
2018-04-29T13:36:21.937Z,35.20
2018-04-29T13:38:49.426Z,34.80
2018-04-29T13:41:16.946Z,35.20
2018-04-29T13:43:44.564Z,37.20
2018-04-29T13:46:12.092Z,34.70
2018-04-29T13:48:39.597Z,33.20
2018-04-29T13:51:07.120Z,31.50
2018-04-29T13:53:34.625Z,32.20
2018-04-29T13:56:02.170Z,31.40
2018-04-29T13:58:30.082Z,31.00
2018-04-29T14:00:57.663Z,30.20
2018-04-29T14:03:25.991Z,30.70
2018-04-29T14:05:53.971Z,30.70
2018-04-29T14:08:21.477Z,30.00
2018-04-29T14:10:49.011Z,31.50
2018-04-29T14:13:16.509Z,31.70
2018-04-29T14:15:44.037Z,32.20
2018-04-29T14:18:12.321Z,34.30
2018-04-29T14:20:39.833Z,34.20
2018-04-29T14:23:07.545Z,32.80
2018-04-29T14:25:35.057Z,33.30
2018-04-29T14:28:02.547Z,33.60
2018-04-29T14:30:30.073Z,33.10
2018-04-29T14:32:58.333Z,34.80
2018-04-29T14:35:26.669Z,34.70
2018-04-29T14:37:54.165Z,33.20
2018-04-29T14:40:21.687Z,33.60
2018-04-29T14:42:49.260Z,33.70
2018-04-29T14:45:17.554Z,33.40
2018-04-29T14:47:45.096Z,33.40
2018-04-29T14:50:12.598Z,33.30
2018-04-29T14:52:40.113Z,32.20
2018-04-29T14:55:07.615Z,34.30
2018-04-29T14:57:35.137Z,33.70
2018-04-29T15:00:02.711Z,33.40
2018-04-29T15:02:30.260Z,33.70
2018-04-29T15:04:57.793Z,34.60
2018-04-29T15:07:25.312Z,34.70
2018-04-29T15:09:52.825Z,34.30
2018-04-29T15:12:20.396Z,34.60
2018-04-29T15:14:47.912Z,34.20
2018-04-29T15:17:15.457Z,34.60
2018-04-29T15:19:50.294Z,34.60
2018-04-29T15:22:17.831Z,35.00
2018-04-29T15:24:45.331Z,34.00
2018-04-29T15:27:12.867Z,34.90
2018-04-29T15:29:40.372Z,35.00
2018-04-29T15:32:07.890Z,34.50
2018-04-29T15:34:35.432Z,35.60
2018-04-29T15:37:02.966Z,35.70
2018-04-29T15:39:30.489Z,35.20
2018-04-29T15:41:58.103Z,35.80
2018-04-29T15:44:25.610Z,36.10
2018-04-29T15:46:53.114Z,37.30
2018-04-29T15:49:21.380Z,36.80
2018-04-29T15:51:48.889Z,36.70
2018-04-29T15:54:16.407Z,37.20
2018-04-29T15:56:43.947Z,37.20
2018-04-29T15:59:12.210Z,37.90
2018-04-29T16:01:39.713Z,37.80
2018-04-29T16:04:07.215Z,38.20
2018-04-29T16:06:34.769Z,37.50
2018-04-29T16:09:02.269Z,38.40
2018-04-29T16:11:29.868Z,38.20
2018-04-29T16:13:57.382Z,38.10
2018-04-29T16:16:24.893Z,39.00
2018-04-29T16:18:52.398Z,39.30
2018-04-29T16:21:19.953Z,39.80
2018-04-29T16:23:47.478Z,40.10
2018-04-29T16:26:14.984Z,40.00
2018-04-29T16:28:42.532Z,38.40
2018-04-29T16:31:10.030Z,39.40
2018-04-29T16:33:37.561Z,38.50
2018-04-29T16:36:05.077Z,39.20
2018-04-29T16:38:32.605Z,38.40
2018-04-29T16:41:00.135Z,37.80
2018-04-29T16:43:27.640Z,37.90
2018-04-29T16:45:55.139Z,38.30
2018-04-29T16:48:22.653Z,38.40
2018-04-29T16:50:50.136Z,38.50
2018-04-29T16:53:17.645Z,38.80
2018-04-29T16:55:45.142Z,38.80
2018-04-29T16:58:12.657Z,39.10
2018-04-29T17:00:40.154Z,38.20
2018-04-29T17:03:07.702Z,38.40
2018-04-29T17:05:35.188Z,38.40
2018-04-29T17:08:02.699Z,38.30
2018-04-29T17:10:30.190Z,37.60
2018-04-29T17:12:57.704Z,37.50
2018-04-29T17:15:25.261Z,38.00
2018-04-29T17:17:52.768Z,38.00
2018-04-29T17:20:20.253Z,37.60
2018-04-29T17:22:47.756Z,37.70
2018-04-29T17:25:15.246Z,37.70
2018-04-29T17:27:42.813Z,37.30
2018-04-29T17:30:10.339Z,37.90
2018-04-29T17:32:37.925Z,38.00
2018-04-29T17:35:05.422Z,38.20
2018-04-29T17:37:32.946Z,38.50
2018-04-29T17:40:00.452Z,38.80
2018-04-29T17:48:15.285Z,39.20
2018-04-29T17:50:42.777Z,39.60
2018-04-29T17:53:10.305Z,39.50
2018-04-29T17:55:38.558Z,39.70
2018-04-29T17:58:06.074Z,39.60
2018-04-29T18:00:33.589Z,39.70
2018-04-29T18:03:01.104Z,39.80
2018-04-29T18:05:28.629Z,40.10
2018-04-29T18:07:56.148Z,40.40
2018-04-29T18:10:23.656Z,40.80
2018-04-29T18:12:51.183Z,40.90
2018-04-29T18:15:18.686Z,41.30
2018-04-29T18:17:46.200Z,41.50
2018-04-29T18:20:13.697Z,41.80
2018-04-29T18:22:41.219Z,42.20
2018-04-29T18:25:08.714Z,42.40
2018-04-29T18:27:36.285Z,42.50
2018-04-29T18:30:03.772Z,42.80
2018-04-29T18:32:31.285Z,42.70
2018-04-29T18:34:58.804Z,43.00
2018-04-29T18:37:26.298Z,42.80
2018-04-29T18:39:53.833Z,43.00
2018-04-29T18:42:21.354Z,43.30
2018-04-29T18:44:48.955Z,43.30
2018-04-29T18:47:16.389Z,43.40
2018-04-29T18:49:44.822Z,43.40
2018-04-29T18:52:12.325Z,43.30
2018-04-29T18:54:39.836Z,43.60
2018-04-29T18:57:07.329Z,43.50
2018-04-29T18:59:34.843Z,43.60
2018-04-29T19:02:02.344Z,43.50
2018-04-29T19:04:29.866Z,43.80
2018-04-29T19:06:57.369Z,44.00
2018-04-29T19:09:24.889Z,44.20
2018-04-29T19:11:52.403Z,44.50
2018-04-29T19:14:19.909Z,44.70
2018-04-29T19:16:47.417Z,44.80
2018-04-29T19:19:15.690Z,45.10
2018-04-29T19:21:43.181Z,45.10
2018-04-29T19:24:10.786Z,45.20
2018-04-29T19:26:38.229Z,45.40
2018-04-29T19:29:05.751Z,45.50
2018-04-29T19:31:33.343Z,45.70
2018-04-29T19:34:00.799Z,45.90
2018-04-29T19:36:28.290Z,46.30
2018-04-29T19:38:56.557Z,46.40
2018-04-29T19:41:24.053Z,46.40
2018-04-29T19:43:51.614Z,46.60
2018-04-29T19:46:19.065Z,46.80
2018-04-29T19:48:46.578Z,47.20
2018-04-29T19:51:14.081Z,47.40
2018-04-29T19:53:41.601Z,47.50
2018-04-29T19:56:09.097Z,47.50
2018-04-29T19:58:37.373Z,48.70
2018-04-29T20:01:04.864Z,48.60
2018-04-29T20:03:32.423Z,48.50
2018-04-29T20:05:59.912Z,48.70
2018-04-29T20:08:27.409Z,48.90
2018-04-29T20:10:54.927Z,49.40
2018-04-29T20:13:22.426Z,49.80
2018-04-29T20:15:49.942Z,49.90
2018-04-29T20:18:17.465Z,50.10
2018-04-29T20:20:44.980Z,50.70
2018-04-29T20:23:12.497Z,50.80
2018-04-29T20:25:40.013Z,51.00
2018-04-29T20:28:07.514Z,51.00
2018-04-29T20:30:35.784Z,51.00
2018-04-29T20:33:03.299Z,50.90
2018-04-29T20:35:33.574Z,51.50
2018-04-29T20:38:01.279Z,52.10
2018-04-29T20:40:28.843Z,52.30
2018-04-29T20:42:56.344Z,52.40
2018-04-29T20:45:23.857Z,52.70
2018-04-29T20:47:52.077Z,53.00
2018-04-29T20:50:19.597Z,53.20
2018-04-29T20:52:47.114Z,53.10
2018-04-29T20:55:15.332Z,53.10
2018-04-29T21:12:31.601Z,55.80
2018-04-29T21:14:59.106Z,55.80
2018-04-29T21:17:26.664Z,56.00
2018-04-29T21:19:54.129Z,56.90
2018-04-29T21:22:21.652Z,56.80
2018-04-29T21:24:49.153Z,56.70
2018-04-29T21:27:16.644Z,57.30
2018-04-29T21:29:45.358Z,57.20
2018-04-29T21:32:14.493Z,56.80
2018-04-29T21:34:42.116Z,56.60
2018-04-29T21:37:09.609Z,56.40
2018-04-29T21:39:37.098Z,56.20
2018-04-29T21:42:04.626Z,56.30
2018-04-29T21:44:32.127Z,56.20
2018-04-29T21:46:59.635Z,56.50
2018-04-29T21:49:27.139Z,55.80
2018-04-29T21:51:54.657Z,55.20
2018-04-29T21:54:22.158Z,54.60
2018-04-29T21:56:49.682Z,53.90
2018-04-29T21:59:17.176Z,53.20
2018-04-29T22:01:44.687Z,52.80
2018-04-29T22:04:12.226Z,52.20
2018-04-29T22:06:39.704Z,52.00
2018-04-29T22:09:07.184Z,51.50
2018-04-29T22:11:34.690Z,52.00
2018-04-29T22:14:02.191Z,52.30
2018-04-29T22:16:29.711Z,52.50
2018-04-29T22:18:57.203Z,52.30
2018-04-29T22:21:24.710Z,52.10
2018-04-29T22:23:52.216Z,52.20
2018-04-29T22:26:20.498Z,52.30
2018-04-29T22:28:47.994Z,52.20
2018-04-29T22:31:15.513Z,52.20
2018-04-29T22:33:43.001Z,52.20
2018-04-29T22:36:10.505Z,52.20
2018-04-29T22:38:37.997Z,52.10
2018-04-29T22:41:05.518Z,52.00
2018-04-29T22:43:33.027Z,52.00
2018-04-29T22:46:00.537Z,52.00
2018-04-29T22:48:28.028Z,52.10
2018-04-29T22:50:55.534Z,51.70
2018-04-29T22:53:23.038Z,51.80
2018-04-29T22:55:50.546Z,51.90
2018-04-29T22:58:18.049Z,51.80
2018-04-29T23:00:45.557Z,51.90
2018-04-29T23:03:13.050Z,52.20
2018-04-29T23:05:40.558Z,52.30
2018-04-29T23:08:08.061Z,52.30
2018-04-29T23:19:33.746Z,53.50
2018-04-29T23:22:01.254Z,53.80
2018-04-29T23:24:28.739Z,54.00
2018-04-29T23:26:56.253Z,54.30
2018-04-29T23:29:23.744Z,54.20
2018-04-29T23:31:51.250Z,54.20
2018-04-29T23:34:18.739Z,55.00
2018-04-29T23:36:46.251Z,55.50
2018-04-29T23:39:13.747Z,55.90
2018-04-29T23:56:25.633Z,65.10
2018-04-29T23:58:53.130Z,66.10
